Time;durP1;ratioP1;P1;durP2;ratioP2;P2;SDS_P1;SDS_P2;PMS_P1;PMS_P2;Temp;Humidity;BMP_temperature;BMP_pressure;BME280_temperature;BME280_humidity;BME280_pressure;Samples;Min_cycle;Max_cycle;Signal;HPM_P1;HPM_P2
2022/12/06 00:04:58;;;;;;;155.40;56.13;;;;;;;2.91;100.00;100820.09;5220152;55;1145072;-67
2022/12/06 00:10:05;;;;;;;173.67;72.83;;;;;;;2.87;100.00;100808.94;5216182;54;1247218;-67
2022/12/06 00:15:11;;;;;;;129.50;54.90;;;;;;;2.80;100.00;100812.70;5268584;54;1143006;-67
2022/12/06 00:20:17;;;;;;;125.43;49.93;;;;;;;2.78;100.00;100804.92;5193842;54;1143062;-69
2022/12/06 00:25:23;;;;;;;130.63;49.83;;;;;;;2.78;100.00;100797.55;5194880;55;1143000;-66
2022/12/06 00:30:29;;;;;;;120.50;50.67;;;;;;;2.83;100.00;100799.06;5219119;54;1145011;-68
2022/12/06 00:35:36;;;;;;;125.85;50.88;;;;;;;2.90;100.00;100793.60;5229176;54;1145100;-66
2022/12/06 00:40:41;;;;;;;132.40;51.90;;;;;;;2.97;100.00;100788.04;5302674;54;1145152;-70
2022/12/06 00:45:47;;;;;;;148.70;59.63;;;;;;;2.96;100.00;100777.66;5241401;54;1142917;-68
2022/12/06 00:50:53;;;;;;;151.67;67.60;;;;;;;2.96;100.00;100778.95;5259124;54;1143102;-68
2022/12/06 00:55:58;;;;;;;126.53;52.23;;;;;;;2.97;100.00;100781.97;5274045;54;1143032;-66
2022/12/06 01:01:14;;;;;;;127.67;49.60;;;;;;;2.93;100.00;100774.70;5263279;54;1142998;-65
2022/12/06 01:06:27;;;;;;;124.20;51.25;;;;;;;2.91;100.00;100776.98;5192316;55;1142993;-69
2022/12/06 01:11:33;;;;;;;126.60;49.98;;;;;;;2.92;100.00;100770.39;5193311;54;1145224;-66
2022/12/06 01:16:41;;;;;;;124.58;49.25;;;;;;;2.96;100.00;100764.13;5278912;54;1145087;-68
2022/12/06 01:21:47;;;;;;;122.27;48.97;;;;;;;3.04;100.00;100753.38;5120296;55;1145025;-69
2022/12/06 01:26:53;;;;;;;153.53;59.80;;;;;;;3.17;100.00;100762.37;5115017;55;1145274;-67
2022/12/06 01:31:59;;;;;;;146.03;53.07;;;;;;;3.24;100.00;100755.95;5180907;55;1142899;-68
2022/12/06 01:37:05;;;;;;;132.33;53.60;;;;;;;3.17;100.00;100761.07;5280272;54;1142984;-65
2022/12/06 01:42:15;;;;;;;125.42;51.68;;;;;;;3.16;100.00;100756.75;5103951;55;1142987;-69
2022/12/06 01:47:30;;;;;;;163.28;56.10;;;;;;;3.12;100.00;100756.48;5115711;56;1145031;-67
2022/12/06 01:52:51;;;;;;;127.97;51.40;;;;;;;3.14;100.00;100756.82;5118249;56;1145388;-68
2022/12/06 01:58:02;;;;;;;152.70;56.30;;;;;;;3.18;100.00;100759.70;5135491;55;1145239;-66
2022/12/06 02:03:12;;;;;;;142.68;59.30;;;;;;;3.24;100.00;100754.64;5233786;54;1145059;-67
2022/12/06 02:08:20;;;;;;;131.55;53.42;;;;;;;3.27;100.00;100754.52;5275591;54;1144635;-66
2022/12/06 02:13:26;;;;;;;132.17;48.77;;;;;;;3.21;100.00;100757.88;5198583;54;1142982;-69
2022/12/06 02:18:57;;;;;;;131.78;51.65;;;;;;;3.09;100.00;100754.85;5167129;54;1142998;-67
2022/12/06 02:24:36;;;;;;;129.77;48.93;;;;;;;3.00;100.00;100747.42;5114679;55;1143105;-65
2022/12/06 02:30:07;;;;;;;124.30;48.40;;;;;;;2.98;100.00;100736.64;5169926;55;1145317;-68
2022/12/06 02:35:38;;;;;;;117.93;45.53;;;;;;;2.99;100.00;100731.34;5151979;55;1145062;-68
2022/12/06 02:40:49;;;;;;;116.10;47.75;;;;;;;3.03;100.00;100729.46;5190339;55;1145147;-66
2022/12/06 02:45:57;;;;;;;114.10;49.40;;;;;;;3.05;100.00;100727.64;5230473;55;1145080;-69
2022/12/06 02:51:07;;;;;;;141.80;55.10;;;;;;;3.08;100.00;100719.19;5215064;55;1145010;-65
2022/12/06 02:56:15;;;;;;;153.80;54.33;;;;;;;3.08;100.00;100715.27;5207510;55;1143043;-66
2022/12/06 03:01:24;;;;;;;121.20;48.73;;;;;;;3.06;100.00;100697.95;5235226;55;1143000;-66
2022/12/06 03:06:42;;;;;;;151.93;54.90;;;;;;;3.08;100.00;100692.20;5212389;55;1143104;-67
2022/12/06 03:12:09;;;;;;;139.67;53.87;;;;;;;3.13;100.00;100687.17;5208114;55;1143001;-69
2022/12/06 03:17:20;;;;;;;132.43;49.63;;;;;;;3.21;100.00;100686.82;5197335;55;1145108;-65
2022/12/06 03:22:34;;;;;;;123.97;49.15;;;;;;;3.28;100.00;100681.72;5143225;56;1145404;-66
2022/12/06 03:27:42;;;;;;;104.50;45.90;;;;;;;3.37;100.00;100668.22;5141300;55;1144999;-65
2022/12/06 03:32:51;;;;;;;132.17;46.83;;;;;;;3.46;100.00;100653.45;5163335;55;1145129;-68
2022/12/06 03:38:08;;;;;;;171.07;52.03;;;;;;;3.51;100.00;100639.67;5146296;56;1142974;-66
2022/12/06 03:43:16;;;;;;;113.53;48.03;;;;;;;3.53;100.00;100637.84;5133824;56;1143161;-67
2022/12/06 03:48:29;;;;;;;118.70;47.07;;;;;;;3.54;100.00;100641.30;5099173;56;1143020;-66
2022/12/06 03:53:35;;;;;;;122.67;46.75;;;;;;;3.47;100.00;100639.45;5112173;56;1145202;-66
2022/12/06 03:58:40;;;;;;;119.50;49.15;;;;;;;3.48;100.00;100654.68;5134569;56;1145057;-68
2022/12/06 04:03:46;;;;;;;130.37;49.20;;;;;;;3.51;100.00;100648.01;5208211;54;1144975;-66
2022/12/06 04:09:50;;;;;;;122.10;47.78;;;;;;;3.55;100.00;100650.84;5208981;55;1145000;-68
2022/12/06 04:14:00;;;;;;;132.87;50.73;;;;;;;3.54;100.00;100639.54;5224189;55;1143261;-64
2022/12/06 04:19:06;;;;;;;111.10;43.70;;;;;;;3.51;100.00;100635.75;5199083;54;1143055;-68
2022/12/06 04:24:12;;;;;;;102.77;47.57;;;;;;;3.48;100.00;100636.38;5205433;55;1143010;-70
2022/12/06 04:40:04;;;;;;;;;;;;;;;3.41;100.00;100624.04;5117631;55;1145160;-66
2022/12/06 04:45:09;;;;;;;108.80;45.67;;;;;;;3.39;100.00;100626.33;5159634;56;976254;-67
2022/12/06 04:50:15;;;;;;;110.73;44.90;;;;;;;3.39;100.00;100624.56;5095670;56;1142901;-66
2022/12/06 04:55:21;;;;;;;111.53;46.23;;;;;;;3.34;100.00;100620.48;5111823;56;1145009;-65
2022/12/06 05:00:27;;;;;;;109.57;47.37;;;;;;;3.33;100.00;100613.56;5184140;54;1145151;-66
2022/12/06 05:05:33;;;;;;;127.70;44.70;;;;;;;3.35;100.00;100615.19;5199021;54;1145146;-67
2022/12/06 05:10:38;;;;;;;125.20;44.47;;;;;;;3.35;100.00;100616.50;5027815;57;1145248;-68
2022/12/06 05:15:57;;;;;;;106.13;44.90;;;;;;;3.35;100.00;100612.58;5049372;56;1145213;-70
2022/12/06 05:21:07;;;;;;;109.40;45.00;;;;;;;3.36;100.00;100617.34;5012674;56;1145439;-68
2022/12/06 05:26:20;;;;;;;96.53;43.40;;;;;;;3.35;100.00;100633.95;5010355;56;1188227;-66
2022/12/06 05:31:26;;;;;;;95.47;43.37;;;;;;;3.32;100.00;100616.63;5020392;56;1142915;-67
2022/12/06 05:36:31;;;;;;;110.20;46.03;;;;;;;3.33;100.00;100614.41;5128223;54;1142966;-68
2022/12/06 05:41:37;;;;;;;115.63;41.23;;;;;;;3.31;100.00;100604.48;5258884;54;1145037;-68
2022/12/06 05:46:43;;;;;;;95.10;40.80;;;;;;;3.31;100.00;100604.48;5293226;54;1145017;-67
2022/12/06 05:51:49;;;;;;;106.73;42.97;;;;;;;3.29;100.00;100603.70;5320400;54;1143053;-70
2022/12/06 05:56:54;;;;;;;117.45;42.93;;;;;;;3.30;100.00;100599.32;5315980;54;1145117;-69
2022/12/06 06:02:00;;;;;;;97.63;40.23;;;;;;;3.30;100.00;100599.32;5266874;54;1145085;-69
2022/12/06 06:07:07;;;;;;;136.53;43.77;;;;;;;3.32;100.00;100601.41;5229513;55;1142841;-62
2022/12/06 06:12:12;;;;;;;114.93;44.43;;;;;;;3.30;100.00;100592.78;5186333;55;1145092;-63
2022/12/06 06:17:18;;;;;;;97.80;42.13;;;;;;;3.31;100.00;100600.56;5213196;54;1145194;-63
2022/12/06 06:22:24;;;;;;;95.77;41.40;;;;;;;3.34;100.00;100600.88;5154819;55;1142909;-66
2022/12/06 06:27:36;;;;;;;82.85;34.70;;;;;;;3.37;100.00;100606.79;5112486;55;1143106;-65
2022/12/06 06:32:42;;;;;;;104.93;41.40;;;;;;;3.41;100.00;100604.89;5037908;56;1142986;-63
2022/12/06 06:37:48;;;;;;;113.53;42.30;;;;;;;3.38;100.00;100591.95;5216654;54;1145114;-66
2022/12/06 06:42:54;;;;;;;82.43;41.30;;;;;;;3.42;100.00;100594.36;5310763;54;1144917;-64
2022/12/06 06:48:00;;;;;;;85.30;35.97;;;;;;;3.43;100.00;100590.83;5285669;54;1142941;-63
2022/12/06 06:53:05;;;;;;;87.00;34.00;;;;;;;3.46;100.00;100588.54;5291782;54;1143040;-65
2022/12/06 06:58:15;;;;;;;107.63;35.77;;;;;;;3.48;100.00;100602.39;5273934;54;1142916;-65
2022/12/06 07:03:21;;;;;;;87.43;37.63;;;;;;;3.43;100.00;100605.21;5208753;54;1142918;-67
2022/12/06 07:08:30;;;;;;;73.63;32.83;;;;;;;3.39;100.00;100602.80;5154092;55;1140875;-66
2022/12/06 07:13:36;;;;;;;84.23;35.33;;;;;;;3.36;100.00;100611.62;5199817;55;1141173;-65
2022/12/06 07:18:43;;;;;;;81.67;34.00;;;;;;;3.36;100.00;100602.97;5190368;54;1143047;-67
2022/12/06 07:23:49;;;;;;;84.50;35.70;;;;;;;3.38;100.00;100591.95;5051242;56;1142979;-66
2022/12/06 07:28:58;;;;;;;84.58;35.60;;;;;;;3.41;100.00;100583.52;5101265;55;1142818;-64
2022/12/06 07:34:04;;;;;;;78.60;35.52;;;;;;;3.47;100.00;100582.39;5178865;55;1142889;-68
2022/12/06 07:39:09;;;;;;;75.12;33.38;;;;;;;3.49;100.00;100587.94;5168775;55;1143141;-70
2022/12/06 07:49:40;;;;;;;75.92;36.40;;;;;;;3.52;100.00;100576.00;5116654;56;1144995;-68
2022/12/06 07:54:46;;;;;;;90.00;36.93;;;;;;;3.53;100.00;100579.00;5137413;56;1143119;-66
2022/12/06 07:59:51;;;;;;;75.20;33.20;;;;;;;3.49;100.00;100572.25;5121735;55;1141020;-64
2022/12/06 08:04:57;;;;;;;63.57;30.90;;;;;;;3.48;100.00;100580.17;5204248;55;1171028;-67
2022/12/06 08:10:04;;;;;;;69.62;31.68;;;;;;;3.46;100.00;100582.85;5225168;55;1142860;-70
2022/12/06 08:15:16;;;;;;;73.23;28.73;;;;;;;3.47;100.00;100587.62;5204848;55;1143103;-69
2022/12/06 08:20:18;;;;;;;57.57;26.40;;;;;;;3.49;100.00;100581.86;5151176;55;1142871;-66
2022/12/06 08:25:26;;;;;;;71.33;32.50;;;;;;;3.47;100.00;100577.16;5149961;56;1142867;-69
2022/12/06 08:30:32;;;;;;;69.50;29.50;;;;;;;3.48;100.00;100582.78;5129765;56;1142802;-65
2022/12/06 08:35:38;;;;;;;88.13;38.80;;;;;;;3.51;100.00;100578.72;5129312;56;1142869;-68
2022/12/06 08:40:44;;;;;;;70.87;30.00;;;;;;;3.53;100.00;100581.62;5187178;55;1142874;-66
2022/12/06 08:45:52;;;;;;;60.47;29.47;;;;;;;3.58;100.00;100580.56;5133017;56;1142935;-67
2022/12/06 08:51:00;;;;;;;49.87;22.90;;;;;;;3.58;100.00;100566.18;5292524;54;1142859;-65
2022/12/06 08:56:06;;;;;;;51.40;23.70;;;;;;;3.53;100.00;100566.39;5302790;54;1142936;-67
2022/12/06 09:01:19;;;;;;;58.07;24.73;;;;;;;3.50;100.00;100561.34;5272446;54;1143018;-68
2022/12/06 09:06:26;;;;;;;52.77;23.43;;;;;;;3.53;100.00;100573.78;5025148;56;1142969;-69
2022/12/06 09:11:31;;;;;;;48.77;22.47;;;;;;;3.56;100.00;100570.63;5153533;55;1142876;-65
2022/12/06 09:16:37;;;;;;;47.33;22.17;;;;;;;3.60;100.00;100570.42;5029137;56;1142989;-68
2022/12/06 09:21:45;;;;;;;52.63;22.47;;;;;;;3.63;100.00;100563.74;5252664;54;1143139;-67
2022/12/06 09:26:51;;;;;;;50.07;21.57;;;;;;;3.65;100.00;100564.98;5197821;54;1142848;-68
2022/12/06 09:31:56;;;;;;;46.00;21.70;;;;;;;3.64;100.00;100553.67;5173951;55;1143003;-68
2022/12/06 09:37:08;;;;;;;37.60;17.87;;;;;;;3.61;100.00;100551.66;5096012;55;1142853;-67
2022/12/06 09:43:03;;;;;;;46.65;21.75;;;;;;;3.59;100.00;100545.66;5186322;55;1142848;-66
2022/12/06 09:48:36;;;;;;;44.38;22.58;;;;;;;3.57;100.00;100547.48;5188731;55;1142874;-70
2022/12/06 09:53:54;;;;;;;45.87;22.57;;;;;;;3.64;100.00;100536.67;5188863;55;1142902;-65
2022/12/06 09:59:56;;;;;;;54.73;27.43;;;;;;;3.67;100.00;100523.88;5147308;55;1142845;-67
2022/12/06 10:05:22;;;;;;;53.30;27.60;;;;;;;3.72;100.00;100525.82;5082165;55;1142994;-66
2022/12/06 10:10:40;;;;;;;40.33;21.70;;;;;;;3.80;100.00;100518.00;5117828;55;1143093;-68
2022/12/06 10:16:14;;;;;;;47.40;25.37;;;;;;;3.76;100.00;100509.06;5175601;55;1140931;-66
2022/12/06 10:21:39;;;;;;;47.78;26.27;;;;;;;3.74;100.00;100512.21;5239928;54;1140865;-66
2022/12/06 10:26:52;;;;;;;46.00;23.50;;;;;;;3.75;100.00;100509.98;5267232;54;1140844;-65
2022/12/06 10:32:14;;;;;;;47.00;22.20;;;;;;;3.77;100.00;100499.83;5277246;54;1143112;-68
2022/12/06 10:37:42;;;;;;;46.17;24.03;;;;;;;3.84;100.00;100493.35;5081902;55;1142945;-65
2022/12/06 10:43:05;;;;;;;63.17;29.53;;;;;;;3.84;100.00;100493.35;5099909;55;1140789;-65
2022/12/06 10:48:21;;;;;;;43.92;22.27;;;;;;;3.83;100.00;100489.50;5102272;56;1140889;-66
2022/12/06 10:53:31;;;;;;;45.03;19.77;;;;;;;3.81;100.00;100488.30;5132245;55;1140951;-70
2022/12/06 10:58:50;;;;;;;42.07;19.93;;;;;;;3.78;100.00;100490.22;5188511;55;1140935;-70
2022/12/06 11:04:09;;;;;;;31.93;16.60;;;;;;;3.75;100.00;100496.45;5139200;55;1143030;-69
2022/12/06 11:09:41;;;;;;;40.80;21.43;;;;;;;3.75;100.00;100492.52;5111705;56;1142805;-65
2022/12/06 11:14:51;;;;;;;43.00;21.03;;;;;;;3.78;100.00;100487.60;5091224;56;1142893;-66
2022/12/06 11:20:13;;;;;;;54.38;23.62;;;;;;;3.77;100.00;100477.59;5091125;56;1143005;-67
2022/12/06 11:25:25;;;;;;;45.43;22.45;;;;;;;3.79;100.00;100466.60;5183176;55;1142936;-66
2022/12/06 11:30:33;;;;;;;44.50;22.97;;;;;;;3.78;100.00;100456.21;5230524;54;1143063;-69
2022/12/06 11:35:40;;;;;;;51.53;25.13;;;;;;;3.81;100.00;100441.67;5291894;54;1142946;-64
2022/12/06 11:40:50;;;;;;;40.85;20.48;;;;;;;3.81;100.00;100437.75;5227445;54;1143130;-66
2022/12/06 11:45:58;;;;;;;32.93;18.87;;;;;;;3.86;100.00;100433.11;5224258;54;1143036;-67
2022/12/06 11:51:09;;;;;;;47.58;24.05;;;;;;;3.85;100.00;100423.56;5170531;54;1141302;-69
2022/12/06 11:56:37;;;;;;;36.10;19.40;;;;;;;3.84;100.00;100430.56;5203869;55;1140799;-66
2022/12/06 12:01:47;;;;;;;35.60;17.05;;;;;;;3.81;100.00;100422.91;5214496;54;1141079;-65
2022/12/06 12:07:06;;;;;;;30.80;18.10;;;;;;;3.86;100.00;100425.26;5233353;54;1143098;-69
2022/12/06 12:12:18;;;;;;;35.98;20.40;;;;;;;3.84;100.00;100426.64;5125092;56;1142987;-68
2022/12/06 12:17:31;;;;;;;34.63;18.50;;;;;;;3.87;100.00;100422.57;5178690;55;1142924;-64
2022/12/06 12:22:41;;;;;;;35.97;20.27;;;;;;;3.94;100.00;100411.34;5286194;54;1143281;-65
2022/12/06 12:27:54;;;;;;;38.83;20.03;;;;;;;3.96;100.00;100412.11;5242734;54;1142846;-67
2022/12/06 12:33:16;;;;;;;30.17;16.57;;;;;;;4.00;100.00;100397.07;5176029;54;1142842;-65
2022/12/06 12:38:26;;;;;;;37.15;17.48;;;;;;;3.98;100.00;100397.15;5182518;55;1142867;-70
2022/12/06 12:43:34;;;;;;;35.52;19.17;;;;;;;3.91;100.00;100391.88;5210924;55;1142824;-68
2022/12/06 12:48:44;;;;;;;35.50;18.60;;;;;;;3.89;100.00;100389.33;5239266;54;1142807;-69
2022/12/06 12:53:58;;;;;;;37.27;19.73;;;;;;;3.88;100.00;100395.95;5280826;54;1142994;-67
2022/12/06 12:59:08;;;;;;;41.37;21.43;;;;;;;3.88;100.00;100389.41;5280541;54;1142938;-68
2022/12/06 13:04:27;;;;;;;42.23;20.15;;;;;;;3.88;100.00;100385.48;5244135;54;1142902;-66
2022/12/06 13:10:06;;;;;;;38.47;18.33;;;;;;;3.88;100.00;100387.64;5190623;54;1142938;-67
2022/12/06 13:15:27;;;;;;;44.03;23.10;;;;;;;3.89;100.00;100386.72;5157860;54;1142872;-66
2022/12/06 13:20:35;;;;;;;43.97;22.73;;;;;;;3.88;100.00;100380.25;5126827;55;1142859;-68
2022/12/06 13:26:03;;;;;;;41.33;20.00;;;;;;;3.93;100.00;100376.94;5134197;55;1143014;-67
2022/12/06 13:31:13;;;;;;;34.53;18.60;;;;;;;3.93;100.00;100367.78;5224620;55;1151759;-68
2022/12/06 13:36:23;;;;;;;33.88;19.07;;;;;;;3.87;100.00;100357.62;5224710;54;1143040;-68
2022/12/06 13:47:32;;;;;;;33.90;17.87;;;;;;;3.83;100.00;100376.55;5282314;54;1142863;-65
2022/12/06 13:52:51;;;;;;;39.63;20.43;;;;;;;3.79;100.00;100360.66;5303371;54;1143055;-69
2022/12/06 13:58:04;;;;;;;29.23;15.53;;;;;;;3.80;100.00;100367.58;5323994;54;1142811;-64
2022/12/06 14:03:23;;;;;;;29.70;16.42;;;;;;;3.80;100.00;100371.97;5265609;54;1142842;-66
2022/12/06 14:08:52;;;;;;;34.87;17.23;;;;;;;3.76;100.00;100370.43;5270331;54;1142857;-66
2022/12/06 14:14:02;;;;;;;30.57;17.00;;;;;;;3.70;100.00;100371.58;4883622;57;1142999;-67
2022/12/06 14:19:45;;;;;;;38.00;19.47;;;;;;;3.69;100.00;100368.58;4881827;58;1143186;-70
2022/12/06 14:25:05;;;;;;;46.17;21.20;;;;;;;3.69;100.00;100367.73;4720635;59;1143142;-68
2022/12/06 14:30:18;;;;;;;52.95;25.00;;;;;;;3.65;100.00;100365.77;4763496;60;1142963;-66
2022/12/06 14:35:34;;;;;;;43.53;22.57;;;;;;;3.60;100.00;100361.68;4767061;59;1143043;-66
2022/12/06 14:46:12;;;;;;;45.75;19.73;;;;;;;3.52;100.00;100355.52;4747608;59;1140963;-67
2022/12/06 14:51:25;;;;;;;55.73;24.90;;;;;;;3.42;100.00;100355.62;4944818;57;1140908;-67
2022/12/06 14:56:35;;;;;;;51.13;22.02;;;;;;;3.39;100.00;100358.38;4924668;57;1140871;-69
2022/12/06 15:01:55;;;;;;;49.00;22.17;;;;;;;3.35;100.00;100355.56;4982061;56;1141100;-70
2022/12/06 15:07:01;;;;;;;56.93;23.47;;;;;;;3.30;100.00;100349.70;5066375;56;1140834;-67
2022/12/06 15:17:51;;;;;;;63.83;25.20;;;;;;;3.27;100.00;100344.17;5203606;55;1141178;-66
2022/12/06 15:22:56;;;;;;;57.30;22.47;;;;;;;3.22;100.00;100338.31;5184984;55;1140932;-65
2022/12/06 15:28:02;;;;;;;52.97;22.90;;;;;;;3.20;100.00;100338.88;5213678;55;1141038;-67
2022/12/06 15:33:22;;;;;;;48.03;19.87;;;;;;;3.17;100.00;100334.65;5137220;54;1141054;-70
2022/12/06 15:38:28;;;;;;;53.17;23.17;;;;;;;3.14;100.00;100336.11;5191772;54;1141025;-67
2022/12/06 15:43:36;;;;;;;53.52;23.92;;;;;;;3.12;100.00;100326.19;5189259;55;1140922;-69
2022/12/06 15:48:42;;;;;;;46.47;22.47;;;;;;;3.13;100.00;100324.42;5129726;55;1140718;-69
2022/12/06 15:53:49;;;;;;;40.43;18.83;;;;;;;3.12;100.00;100320.11;5112466;55;1140802;-67
2022/12/06 15:58:55;;;;;;;44.65;20.75;;;;;;;3.10;100.00;100318.87;5140751;55;1140791;-68
2022/12/06 16:04:02;;;;;;;43.80;19.27;;;;;;;3.07;100.00;100322.95;5146356;55;1140892;-67
2022/12/06 16:09:07;;;;;;;46.67;22.30;;;;;;;3.09;100.00;100313.27;5188129;55;1140933;-67
2022/12/06 16:14:13;;;;;;;46.37;20.37;;;;;;;3.06;100.00;100313.41;5122085;54;1140900;-69
2022/12/06 16:19:20;;;;;;;41.33;17.60;;;;;;;2.99;100.00;100321.19;5244054;54;1140952;-70
2022/12/06 16:24:26;;;;;;;31.70;16.10;;;;;;;2.97;100.00;100317.80;5201632;54;1141017;-68
2022/12/06 16:29:31;;;;;;;28.87;14.57;;;;;;;2.96;100.00;100327.02;5167725;54;1140857;-69
2022/12/06 16:34:37;;;;;;;29.00;15.73;;;;;;;2.92;100.00;100327.63;4966782;56;1141118;-67
2022/12/06 16:39:43;;;;;;;32.70;16.07;;;;;;;2.89;100.00;100321.27;5069048;56;1141086;-66
2022/12/06 16:44:51;;;;;;;55.17;17.73;;;;;;;2.89;100.00;100325.19;4966244;56;1140905;-69
2022/12/06 16:49:57;;;;;;;37.37;17.67;;;;;;;2.85;100.00;100311.88;4909792;56;1140891;-65
2022/12/06 16:55:02;;;;;;;37.23;17.97;;;;;;;2.79;100.00;100318.70;4987656;56;1140865;-69
2022/12/06 17:00:10;;;;;;;37.13;19.10;;;;;;;2.75;100.00;100309.34;5034232;56;1140993;-66
2022/12/06 17:05:20;;;;;;;29.23;16.20;;;;;;;2.72;100.00;100312.95;5035636;56;1140848;-68
2022/12/06 17:10:26;;;;;;;30.62;13.83;;;;;;;2.70;100.00;100310.87;5058483;56;1140880;-69
2022/12/06 17:15:31;;;;;;;24.10;14.70;;;;;;;2.69;100.00;100313.55;4968132;57;1140779;-68
2022/12/06 17:20:38;;;;;;;25.00;13.53;;;;;;;2.68;100.00;100307.48;5045045;57;1140719;-70
2022/12/06 17:25:44;;;;;;;26.73;14.38;;;;;;;2.67;100.00;100305.79;5103669;56;1140827;-68
2022/12/06 17:30:50;;;;;;;27.32;13.45;;;;;;;2.67;100.00;100305.79;5119333;56;1140835;-68
2022/12/06 17:35:56;;;;;;;22.50;11.60;;;;;;;2.64;100.00;100314.22;5007918;57;1140836;-67
2022/12/06 17:42:58;;;;;;;21.20;10.83;;;;;;;2.57;100.00;100312.38;4905154;56;1140844;-69
2022/12/06 17:46:09;;;;;;;23.50;13.03;;;;;;;2.54;100.00;100315.59;4966996;58;1140855;-70
2022/12/06 17:51:15;;;;;;;24.60;13.62;;;;;;;2.51;100.00;100318.34;4953626;57;1140904;-67
2022/12/06 17:56:29;;;;;;;25.90;13.03;;;;;;;2.50;100.00;100308.82;5077076;56;1141174;-66
2022/12/06 18:01:37;;;;;;;21.37;11.53;;;;;;;2.52;100.00;100310.90;5147206;55;1141158;-68
2022/12/06 18:06:44;;;;;;;19.13;11.23;;;;;;;2.52;100.00;100301.30;5193765;55;1140704;-68
2022/12/06 18:11:50;;;;;;;18.70;11.70;;;;;;;2.53;100.00;100304.30;5134457;55;1140643;-67
2022/12/06 18:16:56;;;;;;;18.43;10.90;;;;;;;2.50;100.00;100301.84;5074152;55;1140666;-68
2022/12/06 18:22:01;;;;;;;18.17;10.33;;;;;;;2.50;100.00;100296.62;5115727;55;1141070;-68
2022/12/06 18:27:07;;;;;;;20.23;12.15;;;;;;;2.50;100.00;100297.07;5182692;55;1140804;-68
2022/12/06 18:32:13;;;;;;;19.47;11.03;;;;;;;2.47;100.00;100297.60;5185945;55;1141127;-66
2022/12/06 18:37:19;;;;;;;20.63;11.77;;;;;;;2.47;100.00;100295.45;5207779;54;1140703;-68
2022/12/06 18:42:26;;;;;;;15.78;8.60;;;;;;;2.47;100.00;100299.37;5117298;55;1140855;-67
2022/12/06 18:47:32;;;;;;;18.23;10.77;;;;;;;2.48;100.00;100293.23;5152848;54;1138731;-67
2022/12/06 18:52:37;;;;;;;15.60;9.13;;;;;;;2.44;100.00;100295.13;5105529;55;1140820;-67
2022/12/06 18:57:43;;;;;;;18.43;11.60;;;;;;;2.40;100.00;100295.38;5192442;54;1138742;-69
2022/12/06 19:02:49;;;;;;;18.97;10.80;;;;;;;2.38;100.00;100290.69;5140302;54;1141177;-69
2022/12/06 19:07:55;;;;;;;16.33;10.50;;;;;;;2.34;100.00;100289.97;5103832;55;1140897;-66
2022/12/06 19:13:00;;;;;;;14.97;9.53;;;;;;;2.33;100.00;100285.67;5117061;56;1141028;-68
2022/12/06 19:18:06;;;;;;;15.53;9.77;;;;;;;2.31;100.00;100282.28;5095582;56;1138712;-66
2022/12/06 19:23:12;;;;;;;16.23;10.70;;;;;;;2.30;100.00;100276.67;5162326;55;1138853;-66
2022/12/06 19:28:17;;;;;;;14.87;9.53;;;;;;;2.31;100.00;100275.77;5211321;55;1141118;-67
2022/12/06 19:33:24;;;;;;;15.38;9.18;;;;;;;2.31;100.00;100271.00;5173045;55;1138686;-65
2022/12/06 19:38:30;;;;;;;16.62;11.03;;;;;;;2.27;100.00;100275.55;5153571;55;1138773;-68
2022/12/06 19:49:05;;;;;;;17.03;9.20;;;;;;;2.31;100.00;100265.33;5149851;55;1138726;-65
2022/12/06 19:54:15;;;;;;;15.17;9.70;;;;;;;2.34;100.00;100263.03;5126052;55;1138980;-67
2022/12/06 19:59:22;;;;;;;19.50;11.78;;;;;;;2.29;100.00;100256.72;5128076;55;1138788;-67
2022/12/06 20:04:37;;;;;;;19.17;10.87;;;;;;;2.28;100.00;100252.45;5147929;55;1140977;-68
2022/12/06 20:09:43;;;;;;;15.97;10.27;;;;;;;2.27;100.00;100249.45;5148354;55;1140996;-67
2022/12/06 20:14:50;;;;;;;17.15;11.38;;;;;;;2.24;100.00;100248.28;5158033;55;1140923;-69
2022/12/06 20:19:59;;;;;;;18.77;10.50;;;;;;;2.21;100.00;100246.27;5126472;55;1141803;-67
2022/12/06 20:25:03;;;;;;;20.83;12.33;;;;;;;2.20;100.00;100244.58;5125722;55;1140985;-68
2022/12/06 20:30:10;;;;;;;22.55;12.35;;;;;;;2.19;100.00;100240.28;5108157;55;1140824;-69
2022/12/06 20:35:17;;;;;;;23.32;12.73;;;;;;;2.17;100.00;100238.20;5213034;55;1141274;-67
2022/12/06 20:40:23;;;;;;;20.45;10.88;;;;;;;2.15;100.00;100236.97;5251120;54;1140924;-69
2022/12/06 20:45:29;;;;;;;19.90;12.50;;;;;;;2.11;100.00;100240.20;5290763;54;1142396;-70
2022/12/06 20:50:35;;;;;;;20.83;12.37;;;;;;;2.12;100.00;100225.39;5302992;54;1141257;-69
2022/12/06 20:55:40;;;;;;;20.90;12.73;;;;;;;2.10;100.00;100225.92;5190911;54;1140869;-69
2022/12/06 21:00:47;;;;;;;20.53;10.60;;;;;;;2.08;100.00;100227.30;5257839;54;1141036;-67
2022/12/06 21:06:08;;;;;;;26.77;14.07;;;;;;;2.09;100.00;100221.62;5283625;54;1140854;-69
2022/12/06 21:11:16;;;;;;;20.73;12.10;;;;;;;2.11;100.00;100221.94;5207946;54;1141024;-68
2022/12/06 21:16:29;;;;;;;20.27;11.07;;;;;;;2.13;100.00;100215.34;5300089;54;1141092;-69
2022/12/06 21:21:38;;;;;;;14.97;9.30;;;;;;;2.10;100.00;100216.34;5331618;54;1141489;-67
2022/12/06 21:26:44;;;;;;;18.10;11.80;;;;;;;2.09;100.00;100212.03;5284358;54;1237658;-69
2022/12/06 21:31:49;;;;;;;19.57;11.70;;;;;;;2.11;100.00;100211.97;5268522;54;1140779;-66
2022/12/06 21:36:55;;;;;;;17.77;9.68;;;;;;;2.10;100.00;100203.30;5229838;54;1141012;-69
2022/12/06 21:42:01;;;;;;;19.30;11.22;;;;;;;2.09;100.00;100197.69;5165658;55;1139098;-69
2022/12/06 21:47:06;;;;;;;19.48;11.40;;;;;;;2.07;100.00;100199.98;5138277;55;1141171;-67
2022/12/06 21:52:12;;;;;;;19.67;11.25;;;;;;;2.03;100.00;100204.48;5209479;55;1141172;-69
2022/12/06 21:57:19;;;;;;;15.33;10.20;;;;;;;2.01;100.00;100202.87;5202120;55;1140837;-69
2022/12/06 22:02:24;;;;;;;18.50;11.10;;;;;;;2.02;100.00;100198.03;5202360;54;1140915;-69
2022/12/06 22:07:33;;;;;;;13.37;8.33;;;;;;;2.04;100.00;100189.69;5301965;54;1141064;-68
2022/12/06 22:12:38;;;;;;;12.82;7.33;;;;;;;2.02;100.00;100181.09;5191605;54;1138991;-68
2022/12/06 22:17:44;;;;;;;10.73;7.57;;;;;;;2.03;100.00;100177.56;5205534;54;1139398;-68
2022/12/06 22:22:50;;;;;;;10.17;6.90;;;;;;;2.04;100.00;100170.97;5268823;54;1138686;-70
2022/12/06 22:27:56;;;;;;;7.93;6.43;;;;;;;2.03;100.00;100164.52;5257946;54;1138701;-69
2022/12/06 22:33:03;;;;;;;10.67;6.43;;;;;;;1.99;100.00;100166.42;5251904;54;1137110;-68
2022/12/06 22:38:09;;;;;;;12.10;6.33;;;;;;;1.99;100.00;100160.36;5160535;55;1138731;-66
2022/12/06 22:43:16;;;;;;;7.60;5.17;;;;;;;1.97;100.00;100163.53;5212847;55;1138898;-67
2022/12/06 22:48:22;;;;;;;10.10;6.90;;;;;;;1.96;100.00;100167.91;5274591;54;1136833;-69
2022/12/06 22:53:27;;;;;;;9.90;7.80;;;;;;;1.90;100.00;100154.30;5126702;56;1138830;-68
2022/12/06 22:58:33;;;;;;;8.50;4.73;;;;;;;1.96;100.00;100156.63;5284799;54;1136658;-70
2022/12/06 23:03:39;;;;;;;9.67;6.77;;;;;;;1.98;100.00;100149.11;5247424;54;1136680;-69
2022/12/06 23:08:45;;;;;;;9.90;5.42;;;;;;;1.97;100.00;100146.58;5118216;55;1136664;-68
2022/12/06 23:13:51;;;;;;;6.05;4.90;;;;;;;1.97;100.00;100138.75;5183077;55;1136684;-69
2022/12/06 23:18:58;;;;;;;4.47;3.87;;;;;;;1.95;100.00;100136.67;5106704;55;1136873;-67
2022/12/06 23:24:07;;;;;;;8.47;4.93;;;;;;;1.93;100.00;100130.69;5111109;55;1136800;-69
2022/12/06 23:29:14;;;;;;;5.12;4.40;;;;;;;1.95;100.00;100129.70;5130515;55;1136901;-66
2022/12/06 23:34:25;;;;;;;7.10;4.37;;;;;;;1.93;100.00;100127.62;5182803;55;1136707;-69
2022/12/06 23:39:31;;;;;;;6.87;4.93;;;;;;;1.92;100.00;100123.78;5238847;54;1136739;-69